sensor_id;sensor_type;location;lat;lon;timestamp;temperature;humidity
71514;DHT22;59335;46.652;21.272;2023-11-21T00:02:00;23.39;44.78
71514;DHT22;59335;46.652;21.272;2023-11-21T00:05:03;23.39;44.77
71514;DHT22;59335;46.652;21.272;2023-11-21T00:08:07;23.38;44.76
71514;DHT22;59335;46.652;21.272;2023-11-21T00:11:09;23.39;44.75
71514;DHT22;59335;46.652;21.272;2023-11-21T00:14:12;23.38;44.79
71514;DHT22;59335;46.652;21.272;2023-11-21T00:17:17;23.39;44.79
71514;DHT22;59335;46.652;21.272;2023-11-21T00:20:20;23.38;44.78
71514;DHT22;59335;46.652;21.272;2023-11-21T00:23:23;23.39;44.73
71514;DHT22;59335;46.652;21.272;2023-11-21T00:26:26;23.39;44.76
71514;DHT22;59335;46.652;21.272;2023-11-21T00:29:36;23.38;44.76
71514;DHT22;59335;46.652;21.272;2023-11-21T00:32:39;23.38;44.71
71514;DHT22;59335;46.652;21.272;2023-11-21T00:35:42;23.39;44.70
71514;DHT22;59335;46.652;21.272;2023-11-21T00:38:45;23.40;44.65
71514;DHT22;59335;46.652;21.272;2023-11-21T00:41:50;23.42;44.62
71514;DHT22;59335;46.652;21.272;2023-11-21T00:44:53;23.39;44.66
71514;DHT22;59335;46.652;21.272;2023-11-21T00:47:56;23.39;44.67
71514;DHT22;59335;46.652;21.272;2023-11-21T00:51:02;23.40;44.62
71514;DHT22;59335;46.652;21.272;2023-11-21T00:54:05;23.40;44.61
71514;DHT22;59335;46.652;21.272;2023-11-21T00:57:09;23.36;44.58
71514;DHT22;59335;46.652;21.272;2023-11-21T01:00:14;23.39;44.59
71514;DHT22;59335;46.652;21.272;2023-11-21T01:03:19;23.36;44.59
71514;DHT22;59335;46.652;21.272;2023-11-21T01:06:23;23.36;44.60
71514;DHT22;59335;46.652;21.272;2023-11-21T01:09:26;23.38;44.58
71514;DHT22;59335;46.652;21.272;2023-11-21T01:12:31;23.38;44.52
71514;DHT22;59335;46.652;21.272;2023-11-21T01:15:34;23.36;44.55
71514;DHT22;59335;46.652;21.272;2023-11-21T01:18:36;23.39;44.52
71514;DHT22;59335;46.652;21.272;2023-11-21T01:21:41;23.38;44.49
71514;DHT22;59335;46.652;21.272;2023-11-21T01:24:44;23.36;44.46
71514;DHT22;59335;46.652;21.272;2023-11-21T01:27:47;23.36;44.50
71514;DHT22;59335;46.652;21.272;2023-11-21T01:30:50;23.34;44.42
71514;DHT22;59335;46.652;21.272;2023-11-21T01:33:54;23.38;44.43
71514;DHT22;59335;46.652;21.272;2023-11-21T01:36:57;23.38;44.46
71514;DHT22;59335;46.652;21.272;2023-11-21T01:40:00;23.36;44.42
71514;DHT22;59335;46.652;21.272;2023-11-21T01:43:04;23.39;44.42
71514;DHT22;59335;46.652;21.272;2023-11-21T01:46:08;23.36;44.38
71514;DHT22;59335;46.652;21.272;2023-11-21T01:49:11;23.38;44.38
71514;DHT22;59335;46.652;21.272;2023-11-21T01:52:17;23.36;44.38
71514;DHT22;59335;46.652;21.272;2023-11-21T01:55:20;23.36;44.37
71514;DHT22;59335;46.652;21.272;2023-11-21T01:58:31;23.36;44.40
71514;DHT22;59335;46.652;21.272;2023-11-21T02:01:35;23.36;44.38
71514;DHT22;59335;46.652;21.272;2023-11-21T02:04:38;23.36;44.30
71514;DHT22;59335;46.652;21.272;2023-11-21T02:07:41;23.40;44.32
71514;DHT22;59335;46.652;21.272;2023-11-21T02:10:45;23.36;44.32
71514;DHT22;59335;46.652;21.272;2023-11-21T02:13:48;23.36;44.30
71514;DHT22;59335;46.652;21.272;2023-11-21T02:16:52;23.40;44.29
71514;DHT22;59335;46.652;21.272;2023-11-21T02:19:56;23.39;44.28
71514;DHT22;59335;46.652;21.272;2023-11-21T02:22:59;23.36;44.26
71514;DHT22;59335;46.652;21.272;2023-11-21T02:26:03;23.38;44.26
71514;DHT22;59335;46.652;21.272;2023-11-21T02:29:06;23.36;44.22
71514;DHT22;59335;46.652;21.272;2023-11-21T02:32:13;23.34;44.24
71514;DHT22;59335;46.652;21.272;2023-11-21T02:35:17;23.38;44.21
71514;DHT22;59335;46.652;21.272;2023-11-21T02:38:23;23.34;44.22
71514;DHT22;59335;46.652;21.272;2023-11-21T02:41:26;23.36;44.24
71514;DHT22;59335;46.652;21.272;2023-11-21T02:44:29;23.38;44.21
71514;DHT22;59335;46.652;21.272;2023-11-21T02:47:31;23.36;44.24
71514;DHT22;59335;46.652;21.272;2023-11-21T02:50:34;23.36;44.18
71514;DHT22;59335;46.652;21.272;2023-11-21T02:53:37;23.36;44.23
71514;DHT22;59335;46.652;21.272;2023-11-21T02:56:41;23.34;44.14
71514;DHT22;59335;46.652;21.272;2023-11-21T02:59:44;23.34;44.18
71514;DHT22;59335;46.652;21.272;2023-11-21T03:02:47;23.36;44.16
71514;DHT22;59335;46.652;21.272;2023-11-21T03:05:50;23.34;44.17
71514;DHT22;59335;46.652;21.272;2023-11-21T03:08:53;23.33;44.19
71514;DHT22;59335;46.652;21.272;2023-11-21T03:11:56;23.36;44.13
71514;DHT22;59335;46.652;21.272;2023-11-21T03:14:59;23.34;44.14
71514;DHT22;59335;46.652;21.272;2023-11-21T03:18:02;23.34;44.13
71514;DHT22;59335;46.652;21.272;2023-11-21T03:21:06;23.36;44.07
71514;DHT22;59335;46.652;21.272;2023-11-21T03:24:11;23.36;44.08
71514;DHT22;59335;46.652;21.272;2023-11-21T03:27:14;23.36;44.06
71514;DHT22;59335;46.652;21.272;2023-11-21T03:30:16;23.36;44.09
71514;DHT22;59335;46.652;21.272;2023-11-21T03:33:20;23.36;44.06
71514;DHT22;59335;46.652;21.272;2023-11-21T03:36:23;23.34;44.04
71514;DHT22;59335;46.652;21.272;2023-11-21T03:39:28;23.36;43.98
71514;DHT22;59335;46.652;21.272;2023-11-21T03:42:32;23.34;43.95
71514;DHT22;59335;46.652;21.272;2023-11-21T03:45:35;23.36;44.01
71514;DHT22;59335;46.652;21.272;2023-11-21T03:48:38;23.33;44.03
71514;DHT22;59335;46.652;21.272;2023-11-21T03:51:41;23.34;43.99
71514;DHT22;59335;46.652;21.272;2023-11-21T03:54:44;23.38;44.01
71514;DHT22;59335;46.652;21.272;2023-11-21T03:57:46;23.34;43.94
71514;DHT22;59335;46.652;21.272;2023-11-21T04:00:49;23.34;43.94
71514;DHT22;59335;46.652;21.272;2023-11-21T04:03:52;23.34;43.92
71514;DHT22;59335;46.652;21.272;2023-11-21T04:06:55;23.36;43.91
71514;DHT22;59335;46.652;21.272;2023-11-21T04:09:59;23.34;43.94
71514;DHT22;59335;46.652;21.272;2023-11-21T04:13:02;23.34;43.90
71514;DHT22;59335;46.652;21.272;2023-11-21T04:16:06;23.36;43.88
71514;DHT22;59335;46.652;21.272;2023-11-21T04:19:10;23.38;43.85
71514;DHT22;59335;46.652;21.272;2023-11-21T04:22:13;23.36;43.90
71514;DHT22;59335;46.652;21.272;2023-11-21T04:25:16;23.36;43.83
71514;DHT22;59335;46.652;21.272;2023-11-21T04:28:19;23.34;43.85
71514;DHT22;59335;46.652;21.272;2023-11-21T04:31:22;23.34;43.85
71514;DHT22;59335;46.652;21.272;2023-11-21T04:34:25;23.34;43.86
71514;DHT22;59335;46.652;21.272;2023-11-21T04:37:28;23.33;43.85
71514;DHT22;59335;46.652;21.272;2023-11-21T04:40:30;23.36;43.81
71514;DHT22;59335;46.652;21.272;2023-11-21T04:43:34;23.36;43.80
71514;DHT22;59335;46.652;21.272;2023-11-21T04:46:37;23.33;43.82
71514;DHT22;59335;46.652;21.272;2023-11-21T04:49:43;23.34;43.78
71514;DHT22;59335;46.652;21.272;2023-11-21T04:52:46;23.33;43.75
71514;DHT22;59335;46.652;21.272;2023-11-21T04:55:49;23.34;43.78
71514;DHT22;59335;46.652;21.272;2023-11-21T04:58:53;23.34;43.76
71514;DHT22;59335;46.652;21.272;2023-11-21T05:01:56;23.36;43.75
71514;DHT22;59335;46.652;21.272;2023-11-21T05:05:02;23.34;43.76
71514;DHT22;59335;46.652;21.272;2023-11-21T05:08:06;23.32;43.76
71514;DHT22;59335;46.652;21.272;2023-11-21T05:11:08;23.33;43.76
71514;DHT22;59335;46.652;21.272;2023-11-21T05:14:13;23.33;43.76
71514;DHT22;59335;46.652;21.272;2023-11-21T05:17:17;23.34;43.71
71514;DHT22;59335;46.652;21.272;2023-11-21T05:20:20;23.36;43.72
71514;DHT22;59335;46.652;21.272;2023-11-21T05:23:24;23.33;43.75
71514;DHT22;59335;46.652;21.272;2023-11-21T05:26:27;23.38;43.69
71514;DHT22;59335;46.652;21.272;2023-11-21T05:29:30;23.34;43.73
71514;DHT22;59335;46.652;21.272;2023-11-21T05:32:33;23.38;43.71
71514;DHT22;59335;46.652;21.272;2023-11-21T05:35:36;23.34;43.69
71514;DHT22;59335;46.652;21.272;2023-11-21T05:38:39;23.38;43.66
71514;DHT22;59335;46.652;21.272;2023-11-21T05:41:42;23.34;43.71
71514;DHT22;59335;46.652;21.272;2023-11-21T05:44:45;23.36;43.71
71514;DHT22;59335;46.652;21.272;2023-11-21T05:47:48;23.32;43.66
71514;DHT22;59335;46.652;21.272;2023-11-21T05:50:50;23.33;43.60
71514;DHT22;59335;46.652;21.272;2023-11-21T05:53:53;23.34;43.55
71514;DHT22;59335;46.652;21.272;2023-11-21T05:56:56;23.36;43.55
71514;DHT22;59335;46.652;21.272;2023-11-21T05:59:58;23.33;43.63
71514;DHT22;59335;46.652;21.272;2023-11-21T06:03:02;23.33;43.63
71514;DHT22;59335;46.652;21.272;2023-11-21T06:06:05;23.34;43.69
71514;DHT22;59335;46.652;21.272;2023-11-21T06:09:09;23.33;43.59
71514;DHT22;59335;46.652;21.272;2023-11-21T06:12:14;23.34;43.58
71514;DHT22;59335;46.652;21.272;2023-11-21T06:15:18;23.36;43.66
71514;DHT22;59335;46.652;21.272;2023-11-21T06:18:25;23.36;43.87
71514;DHT22;59335;46.652;21.272;2023-11-21T06:21:28;23.39;43.84
71514;DHT22;59335;46.652;21.272;2023-11-21T06:24:32;23.42;43.87
71514;DHT22;59335;46.652;21.272;2023-11-21T06:27:38;23.40;44.07
71514;DHT22;59335;46.652;21.272;2023-11-21T06:30:41;23.43;44.00
71514;DHT22;59335;46.652;21.272;2023-11-21T06:33:44;23.34;44.74
71514;DHT22;59335;46.652;21.272;2023-11-21T06:36:47;23.38;44.12
71514;DHT22;59335;46.652;21.272;2023-11-21T06:39:50;23.38;44.51
71514;DHT22;59335;46.652;21.272;2023-11-21T06:42:54;23.42;44.33
71514;DHT22;59335;46.652;21.272;2023-11-21T06:45:57;23.43;44.35
71514;DHT22;59335;46.652;21.272;2023-11-21T06:49:00;23.45;44.34
71514;DHT22;59335;46.652;21.272;2023-11-21T06:52:03;23.18;40.72
71514;DHT22;59335;46.652;21.272;2023-11-21T06:55:06;22.85;36.74
71514;DHT22;59335;46.652;21.272;2023-11-21T06:58:11;22.90;39.53
71514;DHT22;59335;46.652;21.272;2023-11-21T07:01:14;23.01;41.53
71514;DHT22;59335;46.652;21.272;2023-11-21T07:04:18;23.15;42.12
71514;DHT22;59335;46.652;21.272;2023-11-21T07:07:23;23.24;42.52
71514;DHT22;59335;46.652;21.272;2023-11-21T07:10:40;23.36;42.73
71514;DHT22;59335;46.652;21.272;2023-11-21T07:13:45;23.43;42.67
71514;DHT22;59335;46.652;21.272;2023-11-21T07:16:48;23.47;42.67
71514;DHT22;59335;46.652;21.272;2023-11-21T07:19:52;23.50;42.60
71514;DHT22;59335;46.652;21.272;2023-11-21T07:22:55;23.53;42.69
71514;DHT22;59335;46.652;21.272;2023-11-21T07:26:00;23.50;42.76
71514;DHT22;59335;46.652;21.272;2023-11-21T07:29:03;23.53;42.86
71514;DHT22;59335;46.652;21.272;2023-11-21T07:32:06;23.56;42.86
71514;DHT22;59335;46.652;21.272;2023-11-21T07:35:15;23.59;42.88
71514;DHT22;59335;46.652;21.272;2023-11-21T07:38:18;23.60;42.97
71514;DHT22;59335;46.652;21.272;2023-11-21T07:41:21;23.64;42.97
71514;DHT22;59335;46.652;21.272;2023-11-21T07:44:32;23.69;43.01
71514;DHT22;59335;46.652;21.272;2023-11-21T07:47:36;23.71;43.02
71514;DHT22;59335;46.652;21.272;2023-11-21T07:50:40;23.75;43.09
71514;DHT22;59335;46.652;21.272;2023-11-21T07:53:43;23.75;43.60
71514;DHT22;59335;46.652;21.272;2023-11-21T07:56:49;23.82;43.54
71514;DHT22;59335;46.652;21.272;2023-11-21T07:59:52;23.91;43.70
71514;DHT22;59335;46.652;21.272;2023-11-21T08:03:00;24.00;43.96
71514;DHT22;59335;46.652;21.272;2023-11-21T08:06:03;23.98;44.04
71514;DHT22;59335;46.652;21.272;2023-11-21T08:09:08;23.96;44.07
71514;DHT22;59335;46.652;21.272;2023-11-21T08:12:12;23.96;44.09
71514;DHT22;59335;46.652;21.272;2023-11-21T08:15:41;23.97;44.11
71514;DHT22;59335;46.652;21.272;2023-11-21T08:18:50;23.96;44.14
71514;DHT22;59335;46.652;21.272;2023-11-21T08:21:53;23.90;44.23
71514;DHT22;59335;46.652;21.272;2023-11-21T08:25:01;23.93;44.24
71514;DHT22;59335;46.652;21.272;2023-11-21T08:28:06;23.93;44.39
71514;DHT22;59335;46.652;21.272;2023-11-21T08:31:11;23.93;44.45
71514;DHT22;59335;46.652;21.272;2023-11-21T08:34:15;23.91;44.43
71514;DHT22;59335;46.652;21.272;2023-11-21T08:37:18;23.91;44.53
71514;DHT22;59335;46.652;21.272;2023-11-21T08:40:25;23.93;44.56
71514;DHT22;59335;46.652;21.272;2023-11-21T08:43:28;23.91;44.61
71514;DHT22;59335;46.652;21.272;2023-11-21T08:46:33;23.96;44.66
71514;DHT22;59335;46.652;21.272;2023-11-21T08:49:37;23.91;44.78
71514;DHT22;59335;46.652;21.272;2023-11-21T08:52:41;23.94;44.83
71514;DHT22;59335;46.652;21.272;2023-11-21T08:55:45;23.96;45.01
71514;DHT22;59335;46.652;21.272;2023-11-21T08:58:48;23.98;45.13
71514;DHT22;59335;46.652;21.272;2023-11-21T09:02:02;23.97;45.12
71514;DHT22;59335;46.652;21.272;2023-11-21T09:05:19;23.75;43.26
71514;DHT22;59335;46.652;21.272;2023-11-21T09:08:28;23.67;41.01
71514;DHT22;59335;46.652;21.272;2023-11-21T09:11:33;23.71;43.36
71514;DHT22;59335;46.652;21.272;2023-11-21T09:14:39;23.75;43.71
71514;DHT22;59335;46.652;21.272;2023-11-21T09:17:42;23.80;43.47
71514;DHT22;59335;46.652;21.272;2023-11-21T09:20:48;23.82;43.47
71514;DHT22;59335;46.652;21.272;2023-11-21T09:23:52;23.85;43.52
71514;DHT22;59335;46.652;21.272;2023-11-21T09:26:57;23.90;43.66
71514;DHT22;59335;46.652;21.272;2023-11-21T09:30:00;23.96;43.66
71514;DHT22;59335;46.652;21.272;2023-11-21T09:33:04;23.96;43.73
71514;DHT22;59335;46.652;21.272;2023-11-21T09:36:13;24.01;43.68
71514;DHT22;59335;46.652;21.272;2023-11-21T09:39:17;24.02;43.77
71514;DHT22;59335;46.652;21.272;2023-11-21T09:42:29;24.04;43.80
71514;DHT22;59335;46.652;21.272;2023-11-21T09:45:36;24.02;43.89
71514;DHT22;59335;46.652;21.272;2023-11-21T09:48:41;23.97;43.90
71514;DHT22;59335;46.652;21.272;2023-11-21T09:51:46;24.00;44.10
71514;DHT22;59335;46.652;21.272;2023-11-21T09:54:50;23.98;44.30
71514;DHT22;59335;46.652;21.272;2023-11-21T09:57:57;23.97;44.39
71514;DHT22;59335;46.652;21.272;2023-11-21T10:01:01;23.98;44.43
71514;DHT22;59335;46.652;21.272;2023-11-21T10:04:07;24.08;44.70
71514;DHT22;59335;46.652;21.272;2023-11-21T10:07:17;24.05;44.76
71514;DHT22;59335;46.652;21.272;2023-11-21T10:10:27;24.04;44.85
71514;DHT22;59335;46.652;21.272;2023-11-21T10:13:32;24.02;44.75
71514;DHT22;59335;46.652;21.272;2023-11-21T10:16:36;24.00;44.73
71514;DHT22;59335;46.652;21.272;2023-11-21T10:19:41;24.02;44.73
71514;DHT22;59335;46.652;21.272;2023-11-21T10:22:51;24.00;44.74
71514;DHT22;59335;46.652;21.272;2023-11-21T10:25:55;23.98;44.81
71514;DHT22;59335;46.652;21.272;2023-11-21T10:29:14;23.97;44.82
71514;DHT22;59335;46.652;21.272;2023-11-21T10:32:19;23.98;44.83
71514;DHT22;59335;46.652;21.272;2023-11-21T10:35:22;23.96;44.84
71514;DHT22;59335;46.652;21.272;2023-11-21T10:38:33;23.94;44.85
71514;DHT22;59335;46.652;21.272;2023-11-21T10:41:41;23.93;44.90
71514;DHT22;59335;46.652;21.272;2023-11-21T10:44:45;23.93;44.85
71514;DHT22;59335;46.652;21.272;2023-11-21T10:47:51;23.93;44.93
71514;DHT22;59335;46.652;21.272;2023-11-21T10:50:54;23.94;45.27
71514;DHT22;59335;46.652;21.272;2023-11-21T10:53:59;23.94;45.14
71514;DHT22;59335;46.652;21.272;2023-11-21T10:57:04;23.98;45.18
71514;DHT22;59335;46.652;21.272;2023-11-21T11:00:08;24.00;45.25
71514;DHT22;59335;46.652;21.272;2023-11-21T11:03:18;23.97;45.33
71514;DHT22;59335;46.652;21.272;2023-11-21T11:06:21;23.98;45.36
71514;DHT22;59335;46.652;21.272;2023-11-21T11:09:30;23.94;45.29
71514;DHT22;59335;46.652;21.272;2023-11-21T11:12:41;23.97;45.27
71514;DHT22;59335;46.652;21.272;2023-11-21T11:15:47;23.97;45.37
71514;DHT22;59335;46.652;21.272;2023-11-21T11:18:51;23.96;45.55
71514;DHT22;59335;46.652;21.272;2023-11-21T11:22:16;23.97;45.55
71514;DHT22;59335;46.652;21.272;2023-11-21T11:28:47;24.00;45.65
71514;DHT22;59335;46.652;21.272;2023-11-21T11:35:19;23.97;45.63
71514;DHT22;59335;46.652;21.272;2023-11-21T11:38:32;23.97;45.67
71514;DHT22;59335;46.652;21.272;2023-11-21T11:41:38;23.96;45.68
71514;DHT22;59335;46.652;21.272;2023-11-21T11:47:56;23.93;46.00
71514;DHT22;59335;46.652;21.272;2023-11-21T11:51:13;23.97;46.02
71514;DHT22;59335;46.652;21.272;2023-11-21T11:54:36;23.97;46.00
71514;DHT22;59335;46.652;21.272;2023-11-21T11:57:42;23.98;45.96
71514;DHT22;59335;46.652;21.272;2023-11-21T12:00:45;23.94;45.99
71514;DHT22;59335;46.652;21.272;2023-11-21T12:07:49;23.97;46.15
71514;DHT22;59335;46.652;21.272;2023-11-21T12:10:54;23.97;46.13
71514;DHT22;59335;46.652;21.272;2023-11-21T12:13:58;23.94;46.21
71514;DHT22;59335;46.652;21.272;2023-11-21T12:17:04;23.96;46.11
71514;DHT22;59335;46.652;21.272;2023-11-21T12:20:08;23.97;46.06
71514;DHT22;59335;46.652;21.272;2023-11-21T12:23:17;23.91;46.41
71514;DHT22;59335;46.652;21.272;2023-11-21T12:26:23;23.93;46.27
71514;DHT22;59335;46.652;21.272;2023-11-21T12:29:26;23.94;46.24
71514;DHT22;59335;46.652;21.272;2023-11-21T12:32:32;23.94;46.24
71514;DHT22;59335;46.652;21.272;2023-11-21T12:35:38;23.91;46.17
71514;DHT22;59335;46.652;21.272;2023-11-21T12:38:41;23.91;46.13
71514;DHT22;59335;46.652;21.272;2023-11-21T12:41:44;23.93;46.09
71514;DHT22;59335;46.652;21.272;2023-11-21T12:44:48;23.91;46.09
71514;DHT22;59335;46.652;21.272;2023-11-21T12:47:52;23.88;46.15
71514;DHT22;59335;46.652;21.272;2023-11-21T12:50:55;23.91;46.36
71514;DHT22;59335;46.652;21.272;2023-11-21T12:53:58;23.93;46.35
71514;DHT22;59335;46.652;21.272;2023-11-21T12:57:02;23.91;46.16
71514;DHT22;59335;46.652;21.272;2023-11-21T13:00:07;23.96;46.30
71514;DHT22;59335;46.652;21.272;2023-11-21T13:03:17;23.96;46.29
71514;DHT22;59335;46.652;21.272;2023-11-21T13:06:22;23.96;46.55
71514;DHT22;59335;46.652;21.272;2023-11-21T13:09:28;23.93;46.55
71514;DHT22;59335;46.652;21.272;2023-11-21T13:12:31;23.94;46.48
71514;DHT22;59335;46.652;21.272;2023-11-21T13:15:46;23.93;46.49
71514;DHT22;59335;46.652;21.272;2023-11-21T13:18:53;23.91;46.56
71514;DHT22;59335;46.652;21.272;2023-11-21T13:21:56;23.91;46.52
71514;DHT22;59335;46.652;21.272;2023-11-21T13:25:01;23.88;46.56
71514;DHT22;59335;46.652;21.272;2023-11-21T13:28:09;23.85;46.51
71514;DHT22;59335;46.652;21.272;2023-11-21T13:31:14;23.88;46.56
71514;DHT22;59335;46.652;21.272;2023-11-21T13:34:31;23.85;46.49
71514;DHT22;59335;46.652;21.272;2023-11-21T13:37:35;23.82;46.46
71514;DHT22;59335;46.652;21.272;2023-11-21T13:40:40;23.80;46.80
71514;DHT22;59335;46.652;21.272;2023-11-21T13:43:47;23.82;46.76
71514;DHT22;59335;46.652;21.272;2023-11-21T13:46:55;23.84;46.52
71514;DHT22;59335;46.652;21.272;2023-11-21T13:50:01;23.82;46.52
71514;DHT22;59335;46.652;21.272;2023-11-21T13:53:04;23.82;46.49
71514;DHT22;59335;46.652;21.272;2023-11-21T13:56:19;23.81;46.45
71514;DHT22;59335;46.652;21.272;2023-11-21T13:59:30;23.81;46.34
71514;DHT22;59335;46.652;21.272;2023-11-21T14:02:34;23.80;46.36
71514;DHT22;59335;46.652;21.272;2023-11-21T14:05:43;23.80;46.30
71514;DHT22;59335;46.652;21.272;2023-11-21T14:08:49;23.81;46.28
71514;DHT22;59335;46.652;21.272;2023-11-21T14:11:53;23.78;46.28
71514;DHT22;59335;46.652;21.272;2023-11-21T14:14:56;23.80;46.25
71514;DHT22;59335;46.652;21.272;2023-11-21T14:17:59;23.77;46.16
71514;DHT22;59335;46.652;21.272;2023-11-21T14:21:10;23.80;46.13
71514;DHT22;59335;46.652;21.272;2023-11-21T14:24:13;23.77;46.85
71514;DHT22;59335;46.652;21.272;2023-11-21T14:27:22;23.77;46.39
71514;DHT22;59335;46.652;21.272;2023-11-21T14:30:28;23.78;46.23
71514;DHT22;59335;46.652;21.272;2023-11-21T14:33:33;23.80;46.35
71514;DHT22;59335;46.652;21.272;2023-11-21T14:36:37;23.81;46.13
71514;DHT22;59335;46.652;21.272;2023-11-21T14:39:41;23.84;46.07
71514;DHT22;59335;46.652;21.272;2023-11-21T14:42:48;23.82;46.53
71514;DHT22;59335;46.652;21.272;2023-11-21T14:45:51;23.84;46.37
71514;DHT22;59335;46.652;21.272;2023-11-21T14:48:54;23.87;46.61
71514;DHT22;59335;46.652;21.272;2023-11-21T14:52:20;23.88;46.40
71514;DHT22;59335;46.652;21.272;2023-11-21T14:55:36;23.84;46.34
71514;DHT22;59335;46.652;21.272;2023-11-21T14:58:56;23.81;46.34
71514;DHT22;59335;46.652;21.272;2023-11-21T15:01:59;23.80;46.38
71514;DHT22;59335;46.652;21.272;2023-11-21T15:05:16;23.78;46.35
71514;DHT22;59335;46.652;21.272;2023-11-21T15:08:19;23.75;46.37
71514;DHT22;59335;46.652;21.272;2023-11-21T15:11:35;23.71;46.38
71514;DHT22;59335;46.652;21.272;2023-11-21T15:17:43;23.74;46.27
71514;DHT22;59335;46.652;21.272;2023-11-21T15:20:47;23.73;46.20
71514;DHT22;59335;46.652;21.272;2023-11-21T15:23:50;23.73;46.18
71514;DHT22;59335;46.652;21.272;2023-11-21T15:26:53;23.71;46.21
71514;DHT22;59335;46.652;21.272;2023-11-21T15:29:55;23.71;46.18
71514;DHT22;59335;46.652;21.272;2023-11-21T15:32:59;23.73;46.16
71514;DHT22;59335;46.652;21.272;2023-11-21T15:36:02;23.67;46.22
71514;DHT22;59335;46.652;21.272;2023-11-21T15:39:06;23.69;46.20
71514;DHT22;59335;46.652;21.272;2023-11-21T15:42:12;23.70;46.08
71514;DHT22;59335;46.652;21.272;2023-11-21T15:45:15;23.71;46.03
71514;DHT22;59335;46.652;21.272;2023-11-21T15:48:21;23.71;46.07
71514;DHT22;59335;46.652;21.272;2023-11-21T15:51:24;23.71;45.96
71514;DHT22;59335;46.652;21.272;2023-11-21T15:54:27;23.70;46.36
71514;DHT22;59335;46.652;21.272;2023-11-21T15:57:30;23.67;46.85
71514;DHT22;59335;46.652;21.272;2023-11-21T16:00:33;23.69;47.86
71514;DHT22;59335;46.652;21.272;2023-11-21T16:03:37;23.73;47.01
71514;DHT22;59335;46.652;21.272;2023-11-21T16:06:40;23.73;46.76
71514;DHT22;59335;46.652;21.272;2023-11-21T16:09:44;23.75;46.72
71514;DHT22;59335;46.652;21.272;2023-11-21T16:12:46;23.75;46.92
71514;DHT22;59335;46.652;21.272;2023-11-21T16:15:49;23.75;47.09
71514;DHT22;59335;46.652;21.272;2023-11-21T16:18:56;23.77;47.20
71514;DHT22;59335;46.652;21.272;2023-11-21T16:21:59;23.77;47.31
71514;DHT22;59335;46.652;21.272;2023-11-21T16:25:03;23.77;47.34
71514;DHT22;59335;46.652;21.272;2023-11-21T16:28:07;23.75;47.34
71514;DHT22;59335;46.652;21.272;2023-11-21T16:31:10;23.75;47.43
71514;DHT22;59335;46.652;21.272;2023-11-21T16:34:17;23.74;47.53
71514;DHT22;59335;46.652;21.272;2023-11-21T16:37:22;23.69;47.04
71514;DHT22;59335;46.652;21.272;2023-11-21T16:40:25;23.74;47.26
71514;DHT22;59335;46.652;21.272;2023-11-21T16:43:29;23.74;47.21
71514;DHT22;59335;46.652;21.272;2023-11-21T16:46:32;23.67;47.27
71514;DHT22;59335;46.652;21.272;2023-11-21T16:49:35;23.71;47.11
71514;DHT22;59335;46.652;21.272;2023-11-21T16:52:40;23.69;47.14
71514;DHT22;59335;46.652;21.272;2023-11-21T16:55:44;23.67;47.13
71514;DHT22;59335;46.652;21.272;2023-11-21T16:58:51;23.67;47.02
71514;DHT22;59335;46.652;21.272;2023-11-21T17:01:53;23.66;46.92
71514;DHT22;59335;46.652;21.272;2023-11-21T17:04:57;23.66;46.81
71514;DHT22;59335;46.652;21.272;2023-11-21T17:08:00;23.64;46.81
71514;DHT22;59335;46.652;21.272;2023-11-21T17:11:03;23.61;46.77
71514;DHT22;59335;46.652;21.272;2023-11-21T17:14:10;23.63;46.78
71514;DHT22;59335;46.652;21.272;2023-11-21T17:17:13;23.63;46.71
71514;DHT22;59335;46.652;21.272;2023-11-21T17:20:17;23.59;46.62
71514;DHT22;59335;46.652;21.272;2023-11-21T17:23:21;23.61;46.55
71514;DHT22;59335;46.652;21.272;2023-11-21T17:26:24;23.64;46.49
71514;DHT22;59335;46.652;21.272;2023-11-21T17:29:27;23.63;46.47
71514;DHT22;59335;46.652;21.272;2023-11-21T17:32:30;23.63;46.53
71514;DHT22;59335;46.652;21.272;2023-11-21T17:35:33;23.61;46.51
71514;DHT22;59335;46.652;21.272;2023-11-21T17:38:37;23.64;46.59
71514;DHT22;59335;46.652;21.272;2023-11-21T17:41:40;23.61;46.49
71514;DHT22;59335;46.652;21.272;2023-11-21T17:44:44;23.61;46.47
71514;DHT22;59335;46.652;21.272;2023-11-21T17:47:47;23.64;46.51
71514;DHT22;59335;46.652;21.272;2023-11-21T17:50:50;23.63;46.51
71514;DHT22;59335;46.652;21.272;2023-11-21T17:53:53;23.61;46.50
71514;DHT22;59335;46.652;21.272;2023-11-21T17:57:03;23.64;46.52
71514;DHT22;59335;46.652;21.272;2023-11-21T18:00:07;23.61;46.52
71514;DHT22;59335;46.652;21.272;2023-11-21T18:03:11;23.60;46.49
71514;DHT22;59335;46.652;21.272;2023-11-21T18:06:14;23.59;46.49
71514;DHT22;59335;46.652;21.272;2023-11-21T18:09:17;23.59;46.47
71514;DHT22;59335;46.652;21.272;2023-11-21T18:12:21;23.59;46.42
71514;DHT22;59335;46.652;21.272;2023-11-21T18:15:24;23.59;46.37
71514;DHT22;59335;46.652;21.272;2023-11-21T18:18:27;23.60;46.37
71514;DHT22;59335;46.652;21.272;2023-11-21T18:21:30;23.60;46.31
71514;DHT22;59335;46.652;21.272;2023-11-21T18:24:33;23.54;46.31
71514;DHT22;59335;46.652;21.272;2023-11-21T18:27:37;23.56;46.23
71514;DHT22;59335;46.652;21.272;2023-11-21T18:30:39;23.60;46.24
71514;DHT22;59335;46.652;21.272;2023-11-21T18:33:43;23.59;46.20
71514;DHT22;59335;46.652;21.272;2023-11-21T18:36:46;23.56;46.17
71514;DHT22;59335;46.652;21.272;2023-11-21T18:39:49;23.54;46.15
71514;DHT22;59335;46.652;21.272;2023-11-21T18:42:52;23.56;46.09
71514;DHT22;59335;46.652;21.272;2023-11-21T18:45:55;23.54;46.12
71514;DHT22;59335;46.652;21.272;2023-11-21T18:48:59;23.56;46.09
71514;DHT22;59335;46.652;21.272;2023-11-21T18:52:05;23.54;46.02
71514;DHT22;59335;46.652;21.272;2023-11-21T18:55:08;23.54;46.02
71514;DHT22;59335;46.652;21.272;2023-11-21T18:58:12;23.53;45.99
71514;DHT22;59335;46.652;21.272;2023-11-21T19:01:29;23.54;45.94
71514;DHT22;59335;46.652;21.272;2023-11-21T19:04:33;23.53;45.94
71514;DHT22;59335;46.652;21.272;2023-11-21T19:07:39;23.53;45.93
71514;DHT22;59335;46.652;21.272;2023-11-21T19:10:43;23.53;45.90
71514;DHT22;59335;46.652;21.272;2023-11-21T19:13:48;23.49;45.86
71514;DHT22;59335;46.652;21.272;2023-11-21T19:16:52;23.51;45.82
71514;DHT22;59335;46.652;21.272;2023-11-21T19:19:57;23.50;45.77
71514;DHT22;59335;46.652;21.272;2023-11-21T19:23:03;23.50;45.77
71514;DHT22;59335;46.652;21.272;2023-11-21T19:26:09;23.49;45.77